createdAt,value
2018-11-20T04:00:19.717Z,57.50
2018-11-20T04:03:59.479Z,57.70
2018-11-20T04:07:22.192Z,57.70
2018-11-20T04:14:04.616Z,57.60
2018-11-20T04:17:35.683Z,57.70
2018-11-20T04:20:58.302Z,57.80
2018-11-20T04:34:13.166Z,57.80
2018-11-20T04:41:17.085Z,62.70
2018-11-20T04:44:33.178Z,60.20
2018-11-20T04:47:55.548Z,59.30
2018-11-20T04:51:20.593Z,58.70
2018-11-20T04:54:35.743Z,58.70
2018-11-20T04:57:56.590Z,58.80
2018-11-20T05:01:10.353Z,58.70
2018-11-20T05:04:25.959Z,58.60
2018-11-20T05:07:39.062Z,58.90
2018-11-20T05:10:59.792Z,58.70
2018-11-20T05:14:10.193Z,58.60
2018-11-20T05:17:27.342Z,58.80
2018-11-20T05:20:43.571Z,58.70
2018-11-20T05:24:01.795Z,58.80
2018-11-20T05:27:36.035Z,58.90
2018-11-20T05:34:08.300Z,59.00
2018-11-20T05:43:33.703Z,59.00
2018-11-20T06:03:12.938Z,58.10
2018-11-20T07:10:20.380Z,56.20
2018-11-20T07:13:28.664Z,56.00
2018-11-20T07:16:56.781Z,55.90
2018-11-20T07:26:23.876Z,55.60
2018-11-20T07:33:13.501Z,55.60
2018-11-20T07:46:06.956Z,55.50
2018-11-20T07:55:34.354Z,55.30
2018-11-20T07:59:00.598Z,55.10
2018-11-20T08:02:29.527Z,55.20
2018-11-20T08:05:54.049Z,55.10
2018-11-20T08:18:52.897Z,54.60
2018-11-20T08:22:08.601Z,54.10
2018-11-20T08:25:30.659Z,53.80
2018-11-20T08:28:52.177Z,54.30
2018-11-20T08:32:12.944Z,54.40
2018-11-20T08:35:34.873Z,54.30
2018-11-20T08:38:57.022Z,54.20
2018-11-20T08:46:13.341Z,53.70
2018-11-20T08:49:33.659Z,53.80
2018-11-20T08:52:49.715Z,52.90
2018-11-20T08:56:17.357Z,52.60
2018-11-20T08:59:27.619Z,52.50
2018-11-20T09:03:00.628Z,53.00
2018-11-20T09:06:23.997Z,52.50
2018-11-20T09:09:44.915Z,53.30
2018-11-20T09:13:25.669Z,53.30
2018-11-20T09:16:38.670Z,53.20
2018-11-20T09:23:28.199Z,53.00
2018-11-20T09:30:31.411Z,51.80
2018-11-20T09:33:51.551Z,51.50
2018-11-20T09:40:30.870Z,51.70
2018-11-20T09:44:04.665Z,50.90
2018-11-20T10:06:17.091Z,51.70
2018-11-20T10:22:20.623Z,50.90
2018-11-20T10:28:51.792Z,51.00
2018-11-20T10:35:23.498Z,51.10
2018-11-20T10:38:55.241Z,51.90
2018-11-20T10:42:08.932Z,51.60
2018-11-20T10:45:21.297Z,51.90
2018-11-20T10:48:44.232Z,51.10
2018-11-20T10:55:16.604Z,51.80
2018-11-20T10:58:35.067Z,51.40
2018-11-20T11:01:55.742Z,52.00
2018-11-20T11:05:18.389Z,51.80
2018-11-20T11:08:38.805Z,52.00
2018-11-20T11:12:08.464Z,51.80
2018-11-20T11:15:31.224Z,52.00
2018-11-20T11:19:05.282Z,52.30
2018-11-20T11:22:24.276Z,52.40
2018-11-20T11:25:38.984Z,52.60
2018-11-20T11:32:29.212Z,52.50
2018-11-20T11:35:53.880Z,52.90
2018-11-20T11:39:04.566Z,53.00
2018-11-20T11:42:18.381Z,53.20
2018-11-20T11:45:38.750Z,53.30
2018-11-20T11:49:00.620Z,53.10
2018-11-20T11:52:15.142Z,53.10
2018-11-20T11:55:37.259Z,53.40
2018-11-20T11:59:00.602Z,53.10
2018-11-20T12:05:46.062Z,52.80
2018-11-20T12:08:58.718Z,52.50
2018-11-20T12:12:11.850Z,52.50
2018-11-20T12:15:27.790Z,52.70
2018-11-20T12:22:15.988Z,52.60
2018-11-20T12:25:31.808Z,53.40
2018-11-20T12:28:59.782Z,53.40
2018-11-20T12:32:26.683Z,53.60
2018-11-20T12:35:41.205Z,53.70
2018-11-20T12:38:53.421Z,53.50
2018-11-20T12:42:12.125Z,53.60
2018-11-20T12:45:26.130Z,53.40
2018-11-20T12:48:40.380Z,53.80
2018-11-20T12:52:05.933Z,53.50
2018-11-20T12:55:23.553Z,53.50
2018-11-20T12:58:58.297Z,53.40
2018-11-20T13:02:22.488Z,53.50
2018-11-20T13:05:53.615Z,53.50
2018-11-20T13:15:53.434Z,53.60
2018-11-20T13:19:18.102Z,53.10
2018-11-20T13:22:26.981Z,53.30
2018-11-20T13:29:28.767Z,53.20
2018-11-20T13:32:46.973Z,54.00
2018-11-20T13:35:56.665Z,53.60
2018-11-20T13:42:37.130Z,53.60
2018-11-20T13:52:15.718Z,53.80
2018-11-20T13:58:54.782Z,54.70
2018-11-20T14:02:28.374Z,55.10
2018-11-20T14:05:51.748Z,55.10
2018-11-20T14:09:11.324Z,55.10
2018-11-20T14:12:38.526Z,55.70
2018-11-20T14:15:59.518Z,55.70
2018-11-20T14:19:24.916Z,55.90
2018-11-20T14:22:51.188Z,55.80
2018-11-20T14:26:17.500Z,56.00
2018-11-20T14:29:38.859Z,56.00
2018-11-20T14:33:03.073Z,56.20
2018-11-20T14:36:25.810Z,56.20
2018-11-20T14:39:46.707Z,56.10
2018-11-20T14:43:08.918Z,56.20
2018-11-20T14:46:36.194Z,56.30
2018-11-20T14:50:02.782Z,56.40
2018-11-20T14:53:33.416Z,56.40
2018-11-20T14:56:56.331Z,56.40
2018-11-20T15:00:13.368Z,56.50
2018-11-20T15:03:46.018Z,56.40
2018-11-20T15:07:04.231Z,56.60
2018-11-20T15:10:23.629Z,56.50
2018-11-20T15:13:41.887Z,56.60
2018-11-20T15:17:10.675Z,56.60
2018-11-20T15:20:19.127Z,56.70
2018-11-20T15:23:32.339Z,56.80
2018-11-20T15:26:56.312Z,56.80
2018-11-20T15:30:16.429Z,56.80
2018-11-20T15:33:42.393Z,56.70
2018-11-20T15:37:12.739Z,56.80
2018-11-20T15:40:31.636Z,57.00
2018-11-20T15:43:58.434Z,57.00
2018-11-20T15:47:19.346Z,56.90
2018-11-20T15:50:41.972Z,56.90
2018-11-20T15:53:56.557Z,56.90
2018-11-20T15:57:16.548Z,56.80
2018-11-20T16:00:35.740Z,56.80
2018-11-20T16:03:58.648Z,56.90
2018-11-20T16:07:15.975Z,56.80
2018-11-20T16:10:35.354Z,57.10
2018-11-20T16:14:11.384Z,57.10
2018-11-20T16:17:41.138Z,57.30
2018-11-20T16:21:08.277Z,57.00
2018-11-20T16:24:38.052Z,57.00
2018-11-20T16:28:01.981Z,57.10
2018-11-20T16:31:17.573Z,57.50
2018-11-20T16:34:51.564Z,57.00
2018-11-20T16:38:11.982Z,57.10
2018-11-20T16:41:42.099Z,57.30
2018-11-20T16:45:07.806Z,57.10
2018-11-20T16:48:27.224Z,57.00
2018-11-20T16:51:53.103Z,57.20
2018-11-20T16:55:14.649Z,57.10
2018-11-20T16:58:34.785Z,57.30
2018-11-20T17:02:02.166Z,57.40
2018-11-20T17:05:23.865Z,57.50
2018-11-20T17:08:51.389Z,57.50
2018-11-20T17:12:18.219Z,57.50
2018-11-20T17:15:37.175Z,57.50
2018-11-20T17:19:07.740Z,57.50
2018-11-20T17:22:27.752Z,57.30
2018-11-20T17:25:47.897Z,57.10
2018-11-20T17:29:03.960Z,57.50
2018-11-20T17:32:23.630Z,57.50
2018-11-20T17:35:43.499Z,57.50
2018-11-20T17:39:17.268Z,57.40
2018-11-20T17:42:53.920Z,57.10
2018-11-20T17:46:13.195Z,57.80
2018-11-20T17:49:32.815Z,57.70
2018-11-20T17:52:52.787Z,57.90
2018-11-20T17:56:12.484Z,57.90
2018-11-20T17:59:31.358Z,57.50
2018-11-20T18:02:53.384Z,57.20
2018-11-20T18:06:12.423Z,57.40
2018-11-20T18:09:26.595Z,57.40
2018-11-20T18:12:59.572Z,57.10
2018-11-20T18:16:22.826Z,57.30
2018-11-20T18:19:59.125Z,57.50
2018-11-20T18:23:16.158Z,57.20
2018-11-20T18:26:37.974Z,57.20
2018-11-20T18:29:54.789Z,57.30
2018-11-20T18:33:15.004Z,57.30
2018-11-20T18:36:34.681Z,57.30
2018-11-20T18:39:54.725Z,57.40
2018-11-20T18:43:20.817Z,57.30
2018-11-20T18:46:39.652Z,57.50
2018-11-20T18:49:55.930Z,57.70
2018-11-20T18:53:11.529Z,57.70
2018-11-20T18:56:51.228Z,57.70
2018-11-20T19:00:18.608Z,57.60
2018-11-20T19:03:37.564Z,57.80
2018-11-20T19:07:11.686Z,57.90
2018-11-20T19:10:47.836Z,57.80
2018-11-20T19:14:07.377Z,57.80
2018-11-20T19:17:29.125Z,57.90
2018-11-20T19:21:02.443Z,58.10
2018-11-20T19:24:22.486Z,58.20
2018-11-20T19:27:42.130Z,58.00
2018-11-20T19:31:01.257Z,58.00
2018-11-20T19:34:38.060Z,57.90
2018-11-20T19:38:06.157Z,58.30
2018-11-20T19:41:25.309Z,58.30
2018-11-20T19:44:55.210Z,58.50
2018-11-20T19:48:20.115Z,58.50
2018-11-20T19:51:39.435Z,58.60
